createdAt,value
2023-02-17T00:01:13.601Z,28.30
2023-02-17T00:03:49.130Z,32.10
2023-02-17T00:06:19.067Z,30.30
2023-02-17T00:08:50.466Z,33.60
2023-02-17T00:11:19.002Z,34.50
2023-02-17T00:13:47.059Z,20.40
2023-02-17T00:16:18.835Z,23.20
2023-02-17T00:18:47.271Z,23.40
2023-02-17T00:21:20.310Z,15.50
2023-02-17T00:23:48.844Z,20.00
2023-02-17T00:26:19.319Z,17.50
2023-02-17T00:28:48.210Z,19.80
2023-02-17T00:31:19.652Z,18.30
2023-02-17T00:33:48.269Z,17.80
2023-02-17T00:36:18.076Z,19.20
2023-02-17T00:38:48.097Z,20.00
2023-02-17T00:41:19.534Z,20.60
2023-02-17T00:43:48.060Z,19.80
2023-02-17T00:46:17.509Z,23.00
2023-02-17T00:48:49.087Z,22.40
2023-02-17T00:51:18.494Z,19.60
2023-02-17T00:53:47.081Z,21.20
2023-02-17T00:56:15.974Z,22.70
2023-02-17T00:58:46.521Z,22.30
2023-02-17T01:01:15.471Z,22.50
2023-02-17T01:03:44.511Z,21.50
2023-02-17T01:06:22.076Z,20.50
2023-02-17T01:08:50.371Z,23.50
2023-02-17T01:11:19.742Z,23.20
2023-02-17T01:13:48.148Z,22.00
2023-02-17T01:16:20.681Z,22.60
2023-02-17T01:18:49.393Z,23.00
2023-02-17T01:21:21.274Z,22.30
2023-02-17T01:23:51.198Z,22.50
2023-02-17T01:26:21.284Z,20.70
2023-02-17T01:31:17.990Z,21.00
2023-02-17T01:33:48.608Z,19.80
2023-02-17T01:36:17.957Z,20.20
2023-02-17T01:38:48.845Z,20.40
2023-02-17T01:41:21.116Z,18.60
2023-02-17T01:44:10.915Z,18.80
2023-02-17T01:46:46.318Z,20.00
2023-02-17T01:49:17.292Z,18.80
2023-02-17T01:51:51.499Z,20.20
2023-02-17T01:54:41.478Z,18.70
2023-02-17T01:57:11.170Z,16.40
2023-02-17T01:59:39.583Z,16.30
2023-02-17T02:02:08.158Z,16.90
2023-02-17T02:04:37.990Z,17.10
2023-02-17T02:07:06.820Z,17.90
2023-02-17T02:09:43.380Z,17.90
2023-02-17T02:12:31.006Z,18.60
2023-02-17T02:15:12.797Z,19.40
2023-02-17T02:18:08.040Z,18.10
2023-02-17T02:20:52.746Z,18.00
2023-02-17T02:23:47.761Z,18.60
2023-02-17T02:26:40.812Z,19.30
2023-02-17T02:29:14.934Z,18.10
2023-02-17T02:31:51.809Z,18.40
2023-02-17T02:34:22.236Z,17.40
2023-02-17T02:37:01.072Z,19.30
2023-02-17T02:39:35.700Z,18.40
2023-02-17T02:42:06.663Z,17.80
2023-02-17T02:44:34.812Z,19.10
2023-02-17T02:47:05.542Z,18.60
2023-02-17T02:49:35.789Z,20.60
2023-02-17T02:52:27.395Z,19.10
2023-02-17T02:55:04.068Z,20.00
2023-02-17T02:57:54.081Z,19.60
2023-02-17T03:00:46.468Z,21.80
2023-02-17T03:03:20.100Z,20.80
2023-02-17T03:06:19.720Z,21.80
2023-02-17T03:09:09.700Z,22.30
2023-02-17T03:11:38.182Z,20.60
2023-02-17T03:14:14.857Z,22.00
2023-02-17T03:16:43.005Z,21.10
2023-02-17T03:19:11.720Z,21.40
2023-02-17T03:22:12.665Z,21.20
2023-02-17T03:24:40.807Z,22.30
2023-02-17T03:27:10.451Z,22.80
2023-02-17T03:29:39.548Z,22.30
2023-02-17T03:32:07.753Z,21.50
2023-02-17T03:34:36.004Z,21.00
2023-02-17T03:37:04.289Z,20.30
2023-02-17T03:39:32.557Z,20.00
2023-02-17T03:42:01.045Z,21.30
2023-02-17T03:44:29.317Z,22.90
2023-02-17T03:46:57.495Z,21.50
2023-02-17T03:49:25.670Z,21.50
2023-02-17T03:51:53.846Z,22.50
2023-02-17T03:54:22.841Z,29.10
2023-02-17T03:56:51.545Z,30.70
2023-02-17T03:59:23.286Z,35.30
2023-02-17T04:01:52.390Z,36.80
2023-02-17T04:04:20.654Z,35.00
2023-02-17T04:06:49.001Z,31.30
2023-02-17T04:09:18.965Z,29.90
2023-02-17T04:11:47.439Z,25.90
2023-02-17T04:14:15.615Z,28.10
2023-02-17T04:16:45.326Z,25.20
2023-02-17T04:19:13.504Z,26.70
2023-02-17T04:21:43.733Z,26.60
2023-02-17T04:24:12.636Z,26.20
2023-02-17T04:26:40.708Z,25.40
2023-02-17T04:29:08.766Z,23.20
2023-02-17T04:31:36.971Z,24.60
2023-02-17T04:34:05.321Z,24.50
2023-02-17T04:36:33.790Z,25.30
2023-02-17T04:39:02.495Z,24.00
2023-02-17T04:41:30.972Z,25.30
2023-02-17T04:43:59.256Z,24.30
2023-02-17T04:46:27.581Z,25.40
2023-02-17T04:48:56.623Z,23.50
2023-02-17T04:51:24.911Z,23.80
2023-02-17T04:53:53.697Z,24.40
2023-02-17T04:56:21.870Z,24.60
2023-02-17T04:58:54.622Z,25.90
2023-02-17T05:01:22.864Z,28.00
2023-02-17T05:03:51.107Z,27.70
2023-02-17T05:06:19.487Z,27.50
2023-02-17T05:08:48.401Z,25.10
2023-02-17T05:11:17.580Z,22.20
2023-02-17T05:13:45.833Z,29.20
2023-02-17T05:16:17.967Z,26.80
2023-02-17T05:18:47.196Z,26.30
2023-02-17T05:21:15.301Z,26.00
2023-02-17T05:23:43.803Z,24.80
2023-02-17T05:26:11.823Z,25.80
2023-02-17T05:28:39.930Z,27.20
2023-02-17T05:31:08.271Z,26.50
2023-02-17T05:33:37.200Z,26.20
2023-02-17T05:36:07.662Z,25.20
2023-02-17T05:38:37.447Z,25.50
2023-02-17T05:41:05.849Z,25.20
2023-02-17T05:43:34.006Z,27.30
2023-02-17T05:46:03.672Z,27.00
2023-02-17T05:48:32.341Z,26.90
2023-02-17T05:51:01.008Z,27.40
2023-02-17T05:53:31.211Z,28.80
2023-02-17T05:55:59.491Z,26.50
2023-02-17T05:58:27.781Z,27.40
2023-02-17T06:00:56.252Z,27.20
2023-02-17T06:03:24.532Z,25.90
2023-02-17T06:05:52.911Z,26.80
2023-02-17T06:08:21.088Z,26.40
2023-02-17T06:10:54.594Z,24.50
2023-02-17T06:13:23.488Z,25.80
2023-02-17T06:15:52.098Z,28.10
2023-02-17T06:18:20.452Z,29.80
2023-02-17T06:20:48.833Z,26.80
2023-02-17T06:23:20.191Z,26.60
2023-02-17T06:25:48.559Z,28.30
2023-02-17T06:28:16.741Z,25.40
2023-02-17T06:30:45.365Z,28.90
2023-02-17T06:33:14.216Z,27.90
2023-02-17T06:35:44.643Z,24.70
2023-02-17T06:38:12.826Z,25.10
2023-02-17T06:40:40.843Z,26.70
2023-02-17T06:43:08.927Z,27.20
2023-02-17T06:45:37.819Z,26.60
2023-02-17T06:48:06.565Z,26.40
2023-02-17T06:50:35.335Z,27.00
2023-02-17T06:53:03.623Z,26.30
2023-02-17T06:55:38.339Z,29.10
2023-02-17T06:58:08.497Z,26.70
2023-02-17T07:00:36.631Z,27.40
2023-02-17T07:03:04.914Z,26.20
2023-02-17T07:05:37.029Z,22.20
2023-02-17T07:08:05.260Z,24.90
2023-02-17T07:10:33.950Z,24.00
2023-02-17T07:13:02.184Z,25.20
2023-02-17T07:15:30.915Z,25.80
2023-02-17T07:17:59.370Z,26.80
2023-02-17T07:20:27.476Z,28.60
2023-02-17T07:22:56.571Z,27.40
2023-02-17T07:25:24.949Z,28.00
2023-02-17T07:27:53.241Z,24.00
2023-02-17T07:30:21.645Z,25.20
2023-02-17T07:32:49.884Z,24.20
2023-02-17T07:35:18.063Z,24.70
2023-02-17T07:37:46.343Z,23.30
2023-02-17T07:40:14.613Z,23.80
2023-02-17T07:42:42.795Z,22.80
2023-02-17T07:45:11.271Z,22.60
2023-02-17T07:47:41.501Z,22.40
2023-02-17T07:50:09.839Z,21.60
2023-02-17T07:52:38.151Z,22.10
2023-02-17T07:55:06.951Z,22.60
2023-02-17T07:57:35.132Z,22.90
2023-02-17T08:00:04.987Z,22.10
2023-02-17T08:02:41.503Z,21.80
2023-02-17T08:05:10.191Z,21.20
2023-02-17T08:07:39.704Z,21.10
2023-02-17T08:10:27.335Z,23.90
2023-02-17T08:13:14.626Z,21.90
2023-02-17T08:15:42.749Z,23.30
2023-02-17T08:18:11.732Z,24.50
2023-02-17T08:20:40.030Z,23.30
2023-02-17T08:23:10.647Z,24.10
2023-02-17T08:25:38.731Z,23.40
2023-02-17T08:28:12.414Z,23.60
2023-02-17T08:30:41.603Z,24.60
2023-02-17T08:33:10.035Z,24.10
2023-02-17T08:35:39.929Z,26.80
2023-02-17T08:38:08.503Z,23.30
2023-02-17T08:40:37.187Z,22.50
2023-02-17T08:43:08.535Z,25.90
2023-02-17T08:45:37.548Z,26.30
2023-02-17T08:48:05.814Z,29.90
2023-02-17T08:50:34.191Z,28.70
2023-02-17T08:53:02.485Z,28.70
2023-02-17T08:55:43.959Z,25.00
2023-02-17T08:58:16.768Z,25.90
2023-02-17T09:00:47.211Z,24.90
2023-02-17T09:03:16.501Z,30.30
2023-02-17T09:05:44.877Z,28.10
2023-02-17T09:08:13.159Z,26.00
2023-02-17T09:10:41.313Z,28.30
2023-02-17T09:13:15.031Z,30.10
2023-02-17T09:15:43.724Z,26.10
2023-02-17T09:18:13.719Z,25.20
2023-02-17T09:20:42.770Z,22.40
2023-02-17T09:23:10.890Z,27.40
2023-02-17T09:25:39.497Z,27.90
2023-02-17T09:28:07.576Z,26.70
2023-02-17T09:30:36.835Z,27.80
2023-02-17T09:33:05.640Z,28.50
2023-02-17T09:35:40.491Z,29.10
2023-02-17T09:38:10.496Z,28.30
2023-02-17T09:40:41.967Z,28.80
2023-02-17T09:43:18.833Z,25.20
2023-02-17T09:45:51.510Z,28.80
2023-02-17T09:48:21.756Z,29.70
2023-02-17T09:53:38.489Z,29.00
2023-02-17T09:56:10.092Z,29.10
2023-02-17T09:58:49.759Z,30.40
2023-02-17T10:01:20.025Z,27.40
2023-02-17T10:03:52.216Z,26.40
2023-02-17T10:06:24.733Z,27.20
2023-02-17T10:09:03.587Z,27.20
2023-02-17T10:11:40.946Z,26.20
2023-02-17T10:14:29.228Z,32.00
2023-02-17T10:17:03.368Z,28.80
2023-02-17T10:19:45.140Z,29.50
2023-02-17T10:22:18.434Z,28.30
2023-02-17T10:24:46.647Z,29.00
2023-02-17T10:27:28.733Z,27.80
2023-02-17T10:30:07.588Z,27.80
2023-02-17T10:33:12.869Z,28.40
2023-02-17T10:35:59.065Z,23.70
2023-02-17T10:38:37.908Z,25.50
2023-02-17T10:41:06.260Z,26.50
2023-02-17T10:43:34.871Z,23.00
2023-02-17T10:46:05.691Z,26.60
2023-02-17T10:48:46.248Z,25.50
2023-02-17T10:53:45.976Z,23.50
2023-02-17T10:56:26.642Z,27.50
2023-02-17T10:58:59.836Z,25.50
2023-02-17T11:01:28.503Z,24.60
2023-02-17T11:04:15.077Z,24.00
2023-02-17T11:06:52.017Z,23.30
2023-02-17T11:09:32.981Z,22.80
2023-02-17T11:12:11.713Z,22.20
2023-02-17T11:14:45.627Z,22.60
2023-02-17T11:17:18.923Z,27.30
2023-02-17T11:20:04.299Z,29.30
2023-02-17T11:22:46.608Z,28.90
2023-02-17T11:25:24.114Z,31.70
2023-02-17T11:28:00.277Z,26.70
2023-02-17T11:30:30.663Z,27.40
2023-02-17T11:32:59.173Z,24.30
2023-02-17T11:35:29.913Z,27.10
2023-02-17T11:38:02.940Z,24.30
2023-02-17T11:40:32.535Z,26.50
2023-02-17T11:43:02.130Z,26.20
2023-02-17T11:45:49.977Z,27.70
2023-02-17T11:48:38.208Z,27.20
2023-02-17T11:51:30.555Z,27.80
2023-02-17T11:54:29.750Z,25.80
2023-02-17T11:57:23.938Z,30.40
2023-02-17T12:00:13.306Z,28.70
2023-02-17T12:02:57.565Z,27.70
2023-02-17T12:05:31.876Z,28.00
2023-02-17T12:08:10.065Z,27.70
2023-02-17T12:10:46.057Z,31.80
2023-02-17T12:13:45.559Z,29.30
2023-02-17T12:16:20.970Z,28.00
2023-02-17T12:19:04.365Z,27.70
2023-02-17T12:21:35.788Z,26.20
2023-02-17T12:24:10.210Z,29.20
2023-02-17T12:26:50.475Z,29.40
2023-02-17T12:29:57.315Z,29.20
2023-02-17T12:32:34.846Z,29.90
2023-02-17T12:35:16.234Z,30.20
2023-02-17T12:38:15.967Z,31.20
2023-02-17T12:40:50.899Z,30.00
2023-02-17T12:43:36.270Z,31.50
2023-02-17T12:46:08.079Z,30.50
2023-02-17T12:48:41.085Z,30.90
2023-02-17T12:51:16.570Z,31.00
2023-02-17T12:53:49.155Z,31.30
2023-02-17T12:56:28.423Z,27.20
2023-02-17T12:59:10.677Z,25.70
2023-02-17T13:01:39.173Z,25.30
2023-02-17T13:04:07.541Z,28.80
2023-02-17T13:06:42.785Z,30.30
2023-02-17T13:09:40.313Z,30.10
2023-02-17T13:12:23.901Z,29.10
2023-02-17T13:14:57.926Z,28.50
2023-02-17T13:17:39.812Z,26.40
2023-02-17T13:20:11.146Z,26.10
2023-02-17T13:22:41.272Z,26.60
2023-02-17T13:25:34.998Z,24.70
2023-02-17T13:28:32.645Z,24.90
2023-02-17T13:31:16.153Z,29.10
2023-02-17T13:33:50.036Z,29.60
2023-02-17T13:36:22.666Z,30.90
2023-02-17T13:39:00.594Z,31.30
2023-02-17T13:41:30.366Z,29.30
2023-02-17T13:43:59.245Z,28.20
2023-02-17T13:46:28.017Z,28.20
2023-02-17T13:49:21.005Z,28.90
2023-02-17T13:51:49.277Z,28.80
2023-02-17T13:54:21.179Z,28.50
2023-02-17T13:56:53.064Z,27.00
2023-02-17T13:59:25.523Z,28.40
2023-02-17T14:01:56.715Z,29.50
2023-02-17T14:04:30.738Z,30.10
2023-02-17T14:06:59.591Z,32.90
2023-02-17T14:09:30.733Z,33.20
2023-02-17T14:12:03.267Z,31.50
2023-02-17T14:14:33.367Z,33.50
2023-02-17T14:17:05.639Z,31.40
2023-02-17T14:19:43.800Z,30.00
2023-02-17T14:22:28.919Z,35.00
2023-02-17T14:25:14.363Z,28.50
2023-02-17T14:27:44.067Z,32.00
2023-02-17T14:30:29.558Z,29.50
2023-02-17T14:33:16.528Z,28.10
2023-02-17T14:35:53.701Z,29.30
2023-02-17T14:38:32.414Z,29.80
2023-02-17T14:41:01.338Z,25.40
2023-02-17T14:43:29.794Z,25.40
2023-02-17T14:45:57.969Z,22.90
2023-02-17T14:48:27.904Z,20.50
2023-02-17T14:50:57.220Z,19.00
2023-02-17T14:53:29.980Z,20.20
2023-02-17T14:56:15.844Z,20.50
2023-02-17T14:58:44.043Z,21.40
2023-02-17T15:01:13.933Z,19.80
2023-02-17T15:03:42.686Z,17.90
2023-02-17T15:06:15.635Z,19.90
2023-02-17T15:08:45.556Z,19.00
2023-02-17T15:14:03.843Z,21.20
2023-02-17T15:16:33.364Z,21.70
2023-02-17T15:19:01.827Z,22.50
2023-02-17T15:21:31.766Z,20.50
2023-02-17T15:24:26.468Z,21.90
2023-02-17T15:26:57.256Z,20.00
2023-02-17T15:29:25.536Z,21.10
2023-02-17T15:31:56.066Z,19.70
2023-02-17T15:34:26.908Z,22.30
2023-02-17T15:36:55.184Z,21.30
2023-02-17T15:39:23.261Z,21.00
2023-02-17T15:41:52.401Z,21.10
2023-02-17T15:44:24.931Z,23.10
2023-02-17T15:46:55.378Z,20.00
2023-02-17T15:49:23.533Z,20.40
2023-02-17T15:51:51.812Z,23.10
2023-02-17T15:54:20.407Z,23.00
2023-02-17T15:56:49.971Z,23.20
2023-02-17T15:59:19.123Z,22.70
2023-02-17T16:01:47.605Z,21.00
2023-02-17T16:04:15.679Z,21.40
2023-02-17T16:06:44.145Z,23.30
2023-02-17T16:09:12.321Z,22.80
2023-02-17T16:11:49.106Z,23.70
2023-02-17T16:14:34.392Z,23.00
2023-02-17T16:17:04.296Z,21.80
2023-02-17T16:19:33.593Z,24.70
2023-02-17T16:22:01.677Z,22.10
2023-02-17T16:24:30.772Z,23.70
2023-02-17T16:26:58.944Z,22.80
2023-02-17T16:29:27.425Z,25.90
2023-02-17T16:31:56.214Z,24.40
2023-02-17T16:34:26.262Z,25.60
2023-02-17T16:36:55.138Z,24.60
2023-02-17T16:39:27.707Z,24.90
2023-02-17T16:41:55.987Z,25.00
2023-02-17T16:44:24.188Z,26.90
2023-02-17T16:46:53.978Z,25.80
2023-02-17T16:49:36.344Z,24.10
2023-02-17T16:52:22.191Z,23.00
2023-02-17T16:54:50.459Z,23.60
2023-02-17T16:57:19.144Z,24.90
2023-02-17T16:59:47.304Z,24.70
2023-02-17T17:02:15.723Z,24.10
2023-02-17T17:04:43.867Z,23.60
2023-02-17T17:07:13.683Z,23.30
2023-02-17T17:09:43.108Z,23.40
2023-02-17T17:12:16.868Z,24.80
2023-02-17T17:14:45.374Z,25.60
2023-02-17T17:17:15.599Z,25.10
2023-02-17T17:19:43.776Z,25.80
2023-02-17T17:22:12.159Z,25.80
2023-02-17T17:24:40.703Z,26.80
2023-02-17T17:27:10.775Z,27.20
2023-02-17T17:29:39.244Z,24.80
2023-02-17T17:32:07.597Z,27.10
2023-02-17T17:34:35.904Z,28.40
2023-02-17T17:37:04.179Z,25.70
2023-02-17T17:39:32.350Z,27.70
2023-02-17T17:42:00.534Z,29.70
2023-02-17T17:44:33.620Z,31.50
2023-02-17T17:47:01.933Z,28.90
2023-02-17T17:49:30.181Z,28.10
2023-02-17T17:51:58.352Z,27.80
2023-02-17T17:54:26.434Z,30.40
2023-02-17T17:56:54.499Z,29.90
2023-02-17T17:59:22.784Z,30.40
2023-02-17T18:01:53.463Z,30.00
2023-02-17T18:04:22.064Z,30.80
2023-02-17T18:06:56.251Z,30.50
2023-02-17T18:09:32.310Z,34.90
2023-02-17T18:12:03.368Z,40.80
2023-02-17T18:14:32.222Z,41.40
2023-02-17T18:17:00.687Z,38.90
2023-02-17T18:19:29.906Z,35.80
2023-02-17T18:21:58.906Z,37.10
2023-02-17T18:24:27.067Z,40.00
2023-02-17T18:26:55.967Z,37.80
2023-02-17T18:29:24.136Z,37.70
2023-02-17T18:31:52.747Z,36.50
2023-02-17T18:34:21.711Z,36.50
2023-02-17T18:36:50.092Z,35.00
2023-02-17T18:39:18.678Z,31.60
2023-02-17T18:41:51.185Z,35.40
2023-02-17T18:44:19.536Z,34.40
2023-02-17T18:46:47.912Z,32.80
2023-02-17T18:49:16.188Z,31.70
2023-02-17T18:51:44.576Z,29.90
2023-02-17T18:54:13.061Z,27.60
2023-02-17T18:56:41.747Z,28.80
2023-02-17T18:59:10.329Z,28.10
2023-02-17T19:01:41.047Z,31.20
2023-02-17T19:04:09.954Z,30.60
2023-02-17T19:06:38.472Z,32.70
2023-02-17T19:09:07.735Z,30.90
2023-02-17T19:11:36.339Z,34.20
2023-02-17T19:14:08.288Z,31.90
2023-02-17T19:16:38.043Z,30.20
2023-02-17T19:19:06.378Z,30.70
2023-02-17T19:21:36.445Z,30.50
2023-02-17T19:24:05.017Z,31.10
2023-02-17T19:26:34.492Z,32.10
2023-02-17T19:29:03.072Z,31.50
2023-02-17T19:31:31.511Z,28.40
2023-02-17T19:33:59.758Z,31.60
2023-02-17T19:36:28.625Z,30.80
2023-02-17T19:38:57.524Z,30.90
2023-02-17T19:41:26.301Z,32.20
2023-02-17T19:43:54.598Z,32.20
2023-02-17T19:46:24.566Z,32.80
2023-02-17T19:51:21.071Z,31.60
2023-02-17T19:53:49.354Z,34.50
2023-02-17T19:56:26.135Z,32.30
2023-02-17T19:58:55.736Z,31.40
2023-02-17T20:01:25.379Z,28.30
2023-02-17T20:03:54.793Z,28.80
2023-02-17T20:06:31.120Z,29.90
2023-02-17T20:09:01.688Z,27.90
2023-02-17T20:11:30.458Z,29.20
2023-02-17T20:13:59.163Z,30.10
2023-02-17T20:16:31.934Z,27.40
2023-02-17T20:19:01.201Z,28.90
2023-02-17T20:21:30.629Z,25.80
2023-02-17T20:24:01.772Z,26.50
2023-02-17T20:26:31.890Z,28.30
2023-02-17T20:29:03.053Z,29.50
2023-02-17T20:31:31.797Z,28.60
2023-02-17T20:34:02.980Z,29.30
2023-02-17T20:36:31.232Z,27.70
2023-02-17T20:38:59.632Z,25.60
2023-02-17T20:41:27.815Z,27.00
2023-02-17T20:43:55.966Z,27.70
2023-02-17T20:46:26.130Z,26.10
2023-02-17T20:48:54.988Z,25.80
2023-02-17T20:51:23.263Z,28.80
2023-02-17T20:53:52.227Z,29.00
2023-02-17T20:56:22.514Z,28.90
2023-02-17T20:58:51.442Z,29.10
2023-02-17T21:01:20.158Z,29.10
2023-02-17T21:03:48.338Z,35.10
2023-02-17T21:06:21.039Z,32.40
2023-02-17T21:08:56.683Z,31.10
2023-02-17T21:11:25.669Z,28.60
2023-02-17T21:13:54.262Z,29.40
2023-02-17T21:16:25.025Z,29.00
2023-02-17T21:18:54.090Z,30.40
2023-02-17T21:21:22.158Z,37.50
2023-02-17T21:23:50.541Z,41.00
2023-02-17T21:26:18.726Z,36.80
2023-02-17T21:28:47.249Z,40.90
2023-02-17T21:31:16.501Z,43.40
2023-02-17T21:33:44.990Z,36.80
2023-02-17T21:36:17.870Z,33.70
2023-02-17T21:38:48.793Z,38.30
2023-02-17T21:41:19.949Z,37.70
2023-02-17T21:44:07.384Z,37.10
2023-02-17T21:46:37.715Z,34.60
2023-02-17T21:49:09.984Z,33.50
2023-02-17T21:51:39.308Z,30.60
2023-02-17T21:56:38.094Z,34.80
2023-02-17T21:59:06.501Z,31.90
2023-02-17T22:01:35.258Z,34.10
2023-02-17T22:04:03.845Z,32.00
2023-02-17T22:06:37.620Z,35.40
2023-02-17T22:09:07.065Z,37.20
2023-02-17T22:11:43.345Z,33.10
2023-02-17T22:14:15.793Z,32.70
2023-02-17T22:16:46.318Z,30.50
2023-02-17T22:19:19.421Z,33.80
2023-02-17T22:21:48.102Z,33.70
2023-02-17T22:24:20.813Z,36.50
2023-02-17T22:26:49.328Z,40.90
2023-02-17T22:29:17.750Z,38.30
2023-02-17T22:31:46.953Z,38.20
2023-02-17T22:34:15.158Z,37.60
2023-02-17T22:36:43.508Z,38.20
2023-02-17T22:39:11.683Z,38.30
2023-02-17T22:41:41.199Z,38.70
2023-02-17T22:44:09.376Z,37.30
2023-02-17T22:46:40.818Z,36.60
2023-02-17T22:49:08.994Z,37.30
2023-02-17T22:51:39.298Z,35.40
2023-02-17T22:54:07.905Z,35.50
2023-02-17T22:56:36.108Z,35.80
2023-02-17T22:59:05.847Z,37.30
2023-02-17T23:01:35.477Z,36.80
2023-02-17T23:04:04.874Z,37.10
2023-02-17T23:06:34.706Z,29.40
2023-02-17T23:09:03.105Z,34.10
2023-02-17T23:11:51.356Z,36.50
2023-02-17T23:14:40.168Z,36.50
2023-02-17T23:19:42.532Z,35.80
2023-02-17T23:22:14.785Z,33.70
2023-02-17T23:24:44.391Z,34.80
2023-02-17T23:27:12.792Z,35.40
2023-02-17T23:29:41.072Z,35.40
2023-02-17T23:32:09.426Z,33.90
2023-02-17T23:34:38.419Z,35.70
2023-02-17T23:37:06.597Z,33.00
2023-02-17T23:39:37.973Z,34.00
2023-02-17T23:42:08.796Z,35.10
2023-02-17T23:44:38.503Z,36.10
2023-02-17T23:47:06.984Z,35.10
2023-02-17T23:49:35.278Z,34.90
2023-02-17T23:52:03.629Z,34.20
2023-02-17T23:54:33.969Z,33.40
2023-02-17T23:57:02.255Z,33.70
2023-02-17T23:59:30.523Z,34.60
